EZY323A EGPH-EGAA
Flight info
| Callsign | EZY323A |
|---|---|
| Flight time | 0h 30m |
| Altitude | 18000 |
| Route | GOSAM P600 BLACA DCT BELZU |
| Aircraft | A320/M-SDE3FGHIRWY/LB1 |
Departure
| Time | 2026-04-25 12:49 |
|---|---|
| Airport | Edinburgh Airport (EGPH) |
Arrival
| Time | 2026-04-25 13:19 |
|---|---|
| Airport | Belfast International Airport (EGAA) |
| Time | Latitude | Longitude | Altitude | Speed | Heading |
|---|---|---|---|---|---|
| 2026-04-25 12:17 | 55.95034 | -3.36093 | 117 ft | 0 kts | 233° |
| 2026-04-25 12:29 | 55.95035 | -3.36093 | 116 ft | 0 kts | 233° |
| 2026-04-25 12:40 | 55.95041 | -3.36078 | 112 ft | 4 kts | 233° |
| 2026-04-25 12:40 | 55.95057 | -3.36040 | 113 ft | 4 kts | 233° |
| 2026-04-25 12:40 | 55.95070 | -3.36009 | 114 ft | 4 kts | 239° |
| 2026-04-25 12:40 | 55.95079 | -3.35966 | 113 ft | 4 kts | 272° |
| 2026-04-25 12:41 | 55.95075 | -3.35935 | 114 ft | 0 kts | 298° |
| 2026-04-25 12:43 | 55.95077 | -3.35942 | 114 ft | 4 kts | 298° |
| 2026-04-25 12:43 | 55.95132 | -3.36256 | 116 ft | 14 kts | 265° |
| 2026-04-25 12:44 | 55.95090 | -3.36411 | 114 ft | 15 kts | 238° |
| 2026-04-25 12:44 | 55.95029 | -3.36594 | 114 ft | 17 kts | 239° |
| 2026-04-25 12:44 | 55.94911 | -3.36941 | 114 ft | 16 kts | 239° |
| 2026-04-25 12:45 | 55.94851 | -3.37123 | 113 ft | 19 kts | 241° |
| 2026-04-25 12:45 | 55.94780 | -3.37326 | 115 ft | 19 kts | 238° |
| 2026-04-25 12:45 | 55.94644 | -3.37728 | 112 ft | 22 kts | 239° |
| 2026-04-25 12:46 | 55.94566 | -3.37957 | 115 ft | 21 kts | 238° |
| 2026-04-25 12:46 | 55.94494 | -3.38170 | 113 ft | 19 kts | 238° |
| 2026-04-25 12:46 | 55.94428 | -3.38364 | 114 ft | 18 kts | 239° |
| 2026-04-25 12:46 | 55.94367 | -3.38546 | 115 ft | 16 kts | 239° |
| 2026-04-25 12:47 | 55.94310 | -3.38712 | 114 ft | 15 kts | 238° |
| 2026-04-25 12:47 | 55.94293 | -3.38855 | 112 ft | 11 kts | 302° |
| 2026-04-25 12:47 | 55.94342 | -3.38926 | 115 ft | 7 kts | 327° |
| 2026-04-25 12:47 | 55.94389 | -3.38974 | 114 ft | 8 kts | 342° |
| 2026-04-25 12:48 | 55.94431 | -3.38925 | 114 ft | 0 kts | 57° |
| 2026-04-25 12:48 | 55.94534 | -3.38624 | 112 ft | 67 kts | 59° |
| 2026-04-25 12:48 | 55.94888 | -3.37579 | 111 ft | 127 kts | 59° |
| 2026-04-25 12:49 | 55.95401 | -3.36067 | 513 ft | 143 kts | 58° |
| 2026-04-25 12:49 | 55.95922 | -3.34548 | 1355 ft | 144 kts | 55° |
| 2026-04-25 12:49 | 55.96664 | -3.33221 | 1915 ft | 162 kts | 45° |
| 2026-04-25 12:49 | 55.97555 | -3.31786 | 2290 ft | 185 kts | 45° |
| 2026-04-25 12:50 | 55.98580 | -3.30130 | 2690 ft | 210 kts | 43° |
| 2026-04-25 12:50 | 55.99795 | -3.28421 | 3160 ft | 235 kts | 25° |
| 2026-04-25 12:50 | 56.01470 | -3.28048 | 3650 ft | 256 kts | 345° |
| 2026-04-25 12:50 | 56.02985 | -3.29673 | 4477 ft | 260 kts | 308° |
| 2026-04-25 12:51 | 56.03670 | -3.32601 | 5436 ft | 261 kts | 275° |
| 2026-04-25 12:51 | 56.03455 | -3.35817 | 6406 ft | 262 kts | 257° |
| 2026-04-25 12:51 | 56.02758 | -3.38865 | 7377 ft | 266 kts | 245° |
| 2026-04-25 12:51 | 56.01911 | -3.41828 | 8291 ft | 270 kts | 245° |
| 2026-04-25 12:52 | 56.01052 | -3.44806 | 9177 ft | 275 kts | 245° |
| 2026-04-25 12:52 | 56.00167 | -3.47859 | 10055 ft | 279 kts | 245° |
| 2026-04-25 12:52 | 55.99252 | -3.51003 | 10621 ft | 295 kts | 245° |
| 2026-04-25 12:52 | 55.98263 | -3.54392 | 11019 ft | 316 kts | 244° |
| 2026-04-25 12:53 | 55.97236 | -3.57894 | 11736 ft | 323 kts | 244° |
| 2026-04-25 12:53 | 55.96191 | -3.61465 | 12551 ft | 327 kts | 244° |
| 2026-04-25 12:53 | 55.95122 | -3.65124 | 13374 ft | 331 kts | 244° |
| 2026-04-25 12:53 | 55.94048 | -3.68797 | 14153 ft | 335 kts | 244° |
| 2026-04-25 12:54 | 55.92967 | -3.72493 | 14863 ft | 338 kts | 244° |
| 2026-04-25 12:54 | 55.91873 | -3.76225 | 15560 ft | 341 kts | 243° |
| 2026-04-25 12:54 | 55.90759 | -3.80014 | 16256 ft | 345 kts | 243° |
| 2026-04-25 12:54 | 55.89660 | -3.83749 | 16946 ft | 348 kts | 243° |
| 2026-04-25 12:55 | 55.88528 | -3.87580 | 17639 ft | 351 kts | 242° |
| 2026-04-25 12:55 | 55.87767 | -3.90156 | 18017 ft | 354 kts | 242° |
| 2026-04-25 12:55 | 55.86229 | -3.95350 | 18222 ft | 351 kts | 242° |
| 2026-04-25 12:55 | 55.85113 | -3.99107 | 18234 ft | 338 kts | 241° |
| 2026-04-25 12:56 | 55.84019 | -4.02785 | 18240 ft | 334 kts | 241° |
| 2026-04-25 12:56 | 55.82931 | -4.06439 | 18236 ft | 333 kts | 241° |
| 2026-04-25 12:56 | 55.81845 | -4.10075 | 18239 ft | 333 kts | 241° |
| 2026-04-25 12:56 | 55.80752 | -4.13727 | 18242 ft | 334 kts | 241° |
| 2026-04-25 12:57 | 55.79629 | -4.17343 | 18242 ft | 333 kts | 236° |
| 2026-04-25 12:57 | 55.78210 | -4.20499 | 18242 ft | 332 kts | 224° |
| 2026-04-25 12:57 | 55.76421 | -4.23104 | 18240 ft | 332 kts | 214° |
| 2026-04-25 12:57 | 55.74520 | -4.25457 | 18240 ft | 333 kts | 214° |
| 2026-04-25 12:58 | 55.72622 | -4.27807 | 18238 ft | 333 kts | 214° |
| 2026-04-25 12:58 | 55.70718 | -4.30167 | 18236 ft | 333 kts | 214° |
| 2026-04-25 12:58 | 55.68823 | -4.32519 | 18239 ft | 333 kts | 214° |
| 2026-04-25 12:58 | 55.66922 | -4.34880 | 18233 ft | 333 kts | 214° |
| 2026-04-25 12:59 | 55.65023 | -4.37232 | 18221 ft | 333 kts | 214° |
| 2026-04-25 12:59 | 55.63145 | -4.39551 | 18218 ft | 333 kts | 214° |
| 2026-04-25 12:59 | 55.61239 | -4.41898 | 18222 ft | 333 kts | 214° |
| 2026-04-25 12:59 | 55.59332 | -4.44241 | 18216 ft | 334 kts | 214° |
| 2026-04-25 13:00 | 55.57431 | -4.46574 | 18220 ft | 334 kts | 214° |
| 2026-04-25 13:00 | 55.56781 | -4.47373 | 18218 ft | 334 kts | 214° |
| 2026-04-25 13:00 | 55.53606 | -4.51271 | 18226 ft | 334 kts | 214° |
| 2026-04-25 13:00 | 55.51694 | -4.53615 | 18224 ft | 334 kts | 214° |
| 2026-04-25 13:01 | 55.49803 | -4.55926 | 18220 ft | 334 kts | 214° |
| 2026-04-25 13:01 | 55.47893 | -4.58257 | 18221 ft | 334 kts | 214° |
| 2026-04-25 13:01 | 55.45973 | -4.60601 | 18226 ft | 334 kts | 214° |
| 2026-04-25 13:01 | 55.44060 | -4.62939 | 18224 ft | 334 kts | 214° |
| 2026-04-25 13:02 | 55.42152 | -4.65270 | 18225 ft | 334 kts | 214° |
| 2026-04-25 13:02 | 55.40240 | -4.67603 | 18225 ft | 334 kts | 213° |
| 2026-04-25 13:02 | 55.38355 | -4.69896 | 18220 ft | 334 kts | 213° |
| 2026-04-25 13:02 | 55.36442 | -4.72214 | 18223 ft | 334 kts | 213° |
| 2026-04-25 13:03 | 55.34527 | -4.74532 | 18228 ft | 334 kts | 213° |
| 2026-04-25 13:03 | 55.32618 | -4.76841 | 18224 ft | 334 kts | 213° |
| 2026-04-25 13:03 | 55.30652 | -4.78999 | 18234 ft | 332 kts | 206° |
| 2026-04-25 13:03 | 55.28581 | -4.80822 | 18232 ft | 332 kts | 206° |
| 2026-04-25 13:04 | 55.26511 | -4.82646 | 18229 ft | 332 kts | 206° |
| 2026-04-25 13:04 | 55.24446 | -4.84459 | 18233 ft | 332 kts | 206° |
| 2026-04-25 13:04 | 55.22378 | -4.86268 | 18234 ft | 332 kts | 206° |
| 2026-04-25 13:04 | 55.20312 | -4.88079 | 18231 ft | 332 kts | 206° |
| 2026-04-25 13:05 | 55.18254 | -4.89885 | 17993 ft | 329 kts | 206° |
| 2026-04-25 13:05 | 55.16213 | -4.91676 | 17541 ft | 328 kts | 206° |
| 2026-04-25 13:05 | 55.14198 | -4.93437 | 17137 ft | 326 kts | 206° |
| 2026-04-25 13:05 | 55.12151 | -4.95223 | 16731 ft | 324 kts | 206° |
| 2026-04-25 13:06 | 55.10165 | -4.96955 | 16321 ft | 323 kts | 206° |
| 2026-04-25 13:06 | 55.08157 | -4.98705 | 15941 ft | 321 kts | 206° |
| 2026-04-25 13:06 | 55.06161 | -5.00443 | 15540 ft | 320 kts | 206° |
| 2026-04-25 13:06 | 55.04166 | -5.02174 | 15153 ft | 319 kts | 206° |
| 2026-04-25 13:07 | 55.02182 | -5.03899 | 14762 ft | 318 kts | 206° |
| 2026-04-25 13:07 | 55.00207 | -5.05616 | 14366 ft | 318 kts | 206° |
| 2026-04-25 13:07 | 54.98249 | -5.07313 | 13970 ft | 317 kts | 206° |
| 2026-04-25 13:07 | 54.96245 | -5.09049 | 13537 ft | 316 kts | 206° |
| 2026-04-25 13:08 | 54.94281 | -5.10744 | 13144 ft | 315 kts | 206° |
| 2026-04-25 13:08 | 54.92319 | -5.12436 | 12745 ft | 313 kts | 206° |
| 2026-04-25 13:08 | 54.90413 | -5.14157 | 12347 ft | 312 kts | 212° |
| 2026-04-25 13:08 | 54.88770 | -5.16602 | 11944 ft | 312 kts | 229° |
| 2026-04-25 13:09 | 54.87613 | -5.19783 | 11542 ft | 313 kts | 245° |
| 2026-04-25 13:09 | 54.86904 | -5.23345 | 11119 ft | 312 kts | 251° |
| 2026-04-25 13:09 | 54.86222 | -5.26933 | 10706 ft | 311 kts | 250° |
| 2026-04-25 13:09 | 54.85536 | -5.30487 | 10327 ft | 309 kts | 250° |
| 2026-04-25 13:10 | 54.84854 | -5.34000 | 10012 ft | 304 kts | 250° |
| 2026-04-25 13:10 | 54.84199 | -5.37374 | 9866 ft | 294 kts | 250° |
| 2026-04-25 13:10 | 54.83550 | -5.40702 | 9559 ft | 289 kts | 250° |
| 2026-04-25 13:10 | 54.82911 | -5.43981 | 9181 ft | 287 kts | 250° |
| 2026-04-25 13:11 | 54.82274 | -5.47245 | 8794 ft | 285 kts | 250° |
| 2026-04-25 13:11 | 54.81637 | -5.50505 | 8398 ft | 283 kts | 250° |
| 2026-04-25 13:11 | 54.81010 | -5.53717 | 8014 ft | 282 kts | 250° |
| 2026-04-25 13:11 | 54.80382 | -5.56932 | 7608 ft | 280 kts | 250° |
| 2026-04-25 13:12 | 54.79757 | -5.60128 | 7222 ft | 279 kts | 250° |
| 2026-04-25 13:12 | 54.79134 | -5.63299 | 6821 ft | 277 kts | 251° |
| 2026-04-25 13:12 | 54.78520 | -5.66412 | 6444 ft | 275 kts | 250° |
| 2026-04-25 13:12 | 54.78312 | -5.67467 | 6304 ft | 275 kts | 251° |
| 2026-04-25 13:13 | 54.77287 | -5.72658 | 5674 ft | 271 kts | 251° |
| 2026-04-25 13:13 | 54.76685 | -5.75714 | 5069 ft | 267 kts | 251° |
| 2026-04-25 13:13 | 54.76084 | -5.78770 | 4336 ft | 267 kts | 251° |
| 2026-04-25 13:13 | 54.75502 | -5.81716 | 3940 ft | 254 kts | 250° |
| 2026-04-25 13:14 | 54.74948 | -5.84496 | 3790 ft | 233 kts | 250° |
| 2026-04-25 13:14 | 54.74439 | -5.87049 | 3677 ft | 219 kts | 250° |
| 2026-04-25 13:14 | 54.73951 | -5.89501 | 3587 ft | 211 kts | 250° |
| 2026-04-25 13:14 | 54.73509 | -5.91872 | 3490 ft | 203 kts | 251° |
| 2026-04-25 13:15 | 54.73040 | -5.94133 | 3411 ft | 197 kts | 246° |
| 2026-04-25 13:15 | 54.72501 | -5.96294 | 3198 ft | 195 kts | 244° |
| 2026-04-25 13:15 | 54.71942 | -5.98422 | 2951 ft | 193 kts | 244° |
| 2026-04-25 13:15 | 54.71388 | -6.00509 | 2720 ft | 185 kts | 244° |
| 2026-04-25 13:16 | 54.70870 | -6.02456 | 2454 ft | 177 kts | 244° |
| 2026-04-25 13:16 | 54.70362 | -6.04358 | 2224 ft | 165 kts | 244° |
| 2026-04-25 13:16 | 54.69901 | -6.06086 | 2008 ft | 155 kts | 244° |
| 2026-04-25 13:16 | 54.69469 | -6.07703 | 1803 ft | 144 kts | 243° |
| 2026-04-25 13:17 | 54.69053 | -6.09256 | 1620 ft | 141 kts | 243° |
| 2026-04-25 13:17 | 54.68646 | -6.10779 | 1420 ft | 139 kts | 243° |
| 2026-04-25 13:17 | 54.68238 | -6.12300 | 1227 ft | 140 kts | 244° |
| 2026-04-25 13:17 | 54.67829 | -6.13827 | 1037 ft | 140 kts | 244° |
| 2026-04-25 13:18 | 54.67419 | -6.15357 | 834 ft | 140 kts | 245° |
| 2026-04-25 13:18 | 54.67001 | -6.16887 | 670 ft | 141 kts | 245° |
| 2026-04-25 13:18 | 54.66593 | -6.18438 | 506 ft | 142 kts | 246° |
| 2026-04-25 13:18 | 54.66184 | -6.19960 | 307 ft | 141 kts | 247° |
| 2026-04-25 13:19 | 54.65798 | -6.21398 | 245 ft | 119 kts | 246° |
| 2026-04-25 13:19 | 54.65532 | -6.22382 | 231 ft | 48 kts | 245° |
| 2026-04-25 13:19 | 54.65482 | -6.22648 | 231 ft | 12 kts | 282° |
| 2026-04-25 13:19 | 54.65498 | -6.22684 | 231 ft | 11 kts | 319° |
| 2026-04-25 13:20 | 54.65659 | -6.22784 | 222 ft | 19 kts | 341° |
| 2026-04-25 13:20 | 54.65662 | -6.22786 | 222 ft | 19 kts | 341° |